Meyers Chuck, Alaska
Current Conditions -  °F | °C
As of 6:53 AM on Sunday 21 Dec 2014 (Local Time) from PAKW Reporting Station
Light Rain Light Rain  
Wind Chill: 41°   Ceiling: 2700
Heat Index: 41°   Visibility: 5mi
Dew Point: 40°   Wind: 3mph
Humidity: 96%   Direction: 330°NNW
Pressure: 29.3"   Gusts: NA
Location:  55.74°N, 132.26°W
Report Text: PAKW 211553Z AUTO 33003KT 5SM -RA BR FEW023 OVC027 05/04 A2930 RMK AO2 SLP924 P0003 T00500044 TSNO
Loading
Personal Weather Stations






























Interactive Weather Map New forecast layout! Learn more

10-Day Weather Forecast

Advertisements
Track Severe Weather on mobile